Time;durP1;ratioP1;P1;durP2;ratioP2;P2;SDS_P1;SDS_P2;PMS_P1;PMS_P2;Temp;Humidity;BMP_temperature;BMP_pressure;BME280_temperature;BME280_humidity;BME280_pressure;Samples;Min_cycle;Max_cycle;Signal;HPM_P1;HPM_P2
2021/04/24 00:00:34;;;;;;;10.50;5.00;;;;;;;17.52;30.50;72538.59;4923063;29;20043;-85
2021/04/24 00:03:01;;;;;;;6.47;5.07;;;;;;;16.41;30.77;72413.88;4922172;29;20042;-82
2021/04/24 00:05:47;;;;;;;7.82;4.28;;;;;;;16.76;30.54;72453.97;4928340;29;20053;-84
2021/04/24 00:08:17;;;;;;;8.70;4.57;;;;;;;17.46;30.57;72529.22;4926223;29;20058;-84
2021/04/24 00:10:47;;;;;;;7.15;4.80;;;;;;;17.65;30.29;72556.94;4919183;29;20047;-84
2021/04/24 00:13:15;;;;;;;6.40;4.60;;;;;;;17.13;30.44;72496.47;4923863;29;20040;-84
2021/04/24 00:15:44;;;;;;;5.80;4.32;;;;;;;16.10;30.19;72377.41;4918374;29;20134;-85
2021/04/24 00:18:12;;;;;;;5.90;4.20;;;;;;;17.62;30.34;72549.97;4937827;29;20472;-85
2021/04/24 00:20:41;;;;;;;6.45;4.55;;;;;;;17.72;28.17;72564.72;4919896;29;20042;-84
2021/04/24 00:23:08;;;;;;;10.27;4.72;;;;;;;17.47;29.27;72535.41;4951443;29;20122;-86
2021/04/24 00:25:36;;;;;;;6.50;3.60;;;;;;;17.97;28.45;72592.88;4936022;29;20469;-85
2021/04/24 00:28:03;;;;;;;4.93;3.90;;;;;;;17.78;27.00;72571.31;4923800;29;20095;-84
2021/04/24 00:30:30;;;;;;;13.73;4.95;;;;;;;17.89;27.92;72584.47;4917083;29;20027;-85
2021/04/24 00:32:57;;;;;;;5.57;4.13;;;;;;;17.57;27.67;72541.81;4929637;29;20039;-85
2021/04/24 00:35:24;;;;;;;8.85;4.28;;;;;;;17.83;26.50;72577.28;4910765;29;20042;-84
2021/04/24 00:37:51;;;;;;;11.55;5.25;;;;;;;18.27;26.44;72627.63;4927728;29;20034;-85
2021/04/24 00:40:19;;;;;;;7.03;4.80;;;;;;;18.30;26.29;72631.22;4937275;29;20032;-86
2021/04/24 00:42:49;;;;;;;5.40;3.83;;;;;;;18.44;25.83;72648.00;4938789;29;20098;-85
2021/04/24 00:45:19;;;;;;;5.97;4.17;;;;;;;17.30;26.30;72515.63;4919896;29;20036;-84
2021/04/24 00:47:46;;;;;;;6.88;3.83;;;;;;;17.72;25.94;72564.72;4920115;29;20291;-85
2021/04/24 00:50:17;;;;;;;12.43;4.15;;;;;;;18.22;25.75;72619.44;4922907;29;20517;-85
2021/04/24 00:52:45;;;;;;;6.03;4.90;;;;;;;17.79;25.40;72572.50;4939710;29;20035;-82
2021/04/24 00:55:12;;;;;;;7.28;3.92;;;;;;;18.18;25.67;72618.03;4932551;29;20785;-83
2021/04/24 00:57:40;;;;;;;9.07;4.07;;;;;;;18.45;26.04;72649.19;4912920;29;20028;-84
2021/04/24 01:00:11;;;;;;;4.35;3.53;;;;;;;17.58;25.99;72548.56;4909859;29;20052;-83
2021/04/24 01:02:39;;;;;;;6.97;3.95;;;;;;;18.08;26.46;72605.47;4937489;29;20102;-83
2021/04/24 01:05:11;;;;;;;6.78;3.92;;;;;;;18.15;26.47;72611.06;4931530;29;20114;-82
2021/04/24 01:07:40;;;;;;;8.65;4.45;;;;;;;18.17;25.84;72614.06;4919701;29;20028;-83
2021/04/24 01:10:11;;;;;;;11.20;4.78;;;;;;;18.95;24.74;72706.13;4923267;29;20024;-84
2021/04/24 01:12:38;;;;;;;7.35;3.38;;;;;;;18.81;25.89;72687.16;4920696;29;20036;-86
2021/04/24 01:15:07;;;;;;;6.20;3.90;;;;;;;18.49;23.72;72652.78;4942780;29;20041;-90
2021/04/24 01:17:34;;;;;;;13.30;4.63;;;;;;;19.16;24.34;72727.94;4931762;29;20028;-83
2021/04/24 01:20:01;;;;;;;6.45;3.75;;;;;;;19.54;23.56;72775.06;4947194;29;20051;-82
2021/04/24 01:22:28;;;;;;;5.22;3.65;;;;;;;19.33;24.32;72747.72;4958865;28;20022;-90
2021/04/24 01:24:55;;;;;;;9.23;3.95;;;;;;;18.59;24.23;72664.75;4940029;28;20054;-85
2021/04/24 01:27:22;;;;;;;10.95;5.05;;;;;;;18.72;24.44;72674.19;4957878;28;20100;-83
2021/04/24 01:29:49;;;;;;;5.40;3.60;;;;;;;18.13;24.81;72611.47;4939050;29;20028;-83
2021/04/24 01:32:16;;;;;;;8.15;4.72;;;;;;;19.39;24.18;72757.69;4947148;29;20027;-85
2021/04/24 01:34:42;;;;;;;8.32;4.85;;;;;;;19.52;24.34;72772.69;4925796;29;20042;-87
2021/04/24 01:37:09;;;;;;;11.38;3.95;;;;;;;19.33;23.97;72747.72;4938385;29;20019;-87
2021/04/24 01:39:37;;;;;;;9.02;4.07;;;;;;;19.55;21.80;72775.69;4937988;29;20028;-84
2021/04/24 01:42:05;;;;;;;8.55;3.20;;;;;;;18.40;21.17;72640.41;4919754;29;20450;-82
2021/04/24 01:44:31;;;;;;;7.90;3.42;;;;;;;19.50;20.85;72767.47;4918105;29;20450;-83
2021/04/24 01:46:58;;;;;;;7.45;3.80;;;;;;;19.14;21.38;72728.31;4917002;29;20040;-87
2021/04/24 01:49:25;;;;;;;9.00;3.88;;;;;;;19.31;21.78;72745.28;4915993;29;20031;-83
2021/04/24 01:51:52;;;;;;;4.63;3.88;;;;;;;20.05;20.50;72833.88;4953738;29;20284;-84
2021/04/24 01:54:19;;;;;;;5.25;4.03;;;;;;;20.33;19.94;72863.44;4945171;29;20034;-87
2021/04/24 01:56:52;;;;;;;6.03;3.40;;;;;;;19.26;21.25;72742.09;4930632;29;20032;-86
2021/04/24 01:59:22;;;;;;;10.55;4.43;;;;;;;20.20;21.86;72850.66;4939867;29;20039;-90
2021/04/24 02:02:13;;;;;;;7.82;4.38;;;;;;;18.58;22.28;72658.59;4939866;28;20043;-92
2021/04/24 02:04:40;;;;;;;3.60;3.30;;;;;;;19.08;21.62;72721.13;4909824;29;20027;-85
2021/04/24 02:07:09;;;;;;;8.73;4.18;;;;;;;18.62;22.08;72668.38;4928316;29;20027;-86
2021/04/24 02:09:36;;;;;;;6.22;4.10;;;;;;;19.50;21.71;72767.47;4923585;29;20042;-87
2021/04/24 02:12:11;;;;;;;6.18;3.88;;;;;;;20.29;21.42;72858.66;4934665;29;20035;-89
2021/04/24 02:14:42;;;;;;;6.07;4.10;;;;;;;19.74;21.37;72797.88;4920232;29;20046;-87
2021/04/24 02:17:12;;;;;;;5.10;3.22;;;;;;;19.30;21.96;72746.31;4936392;29;20026;-83
2021/04/24 02:19:43;;;;;;;5.43;3.92;;;;;;;19.54;21.33;72771.69;4917780;29;20028;-86
2021/04/24 02:22:15;;;;;;;9.60;3.85;;;;;;;19.81;22.00;72803.44;4919320;29;20023;-85
2021/04/24 02:24:48;;;;;;;5.20;3.83;;;;;;;18.72;21.18;72680.34;4937781;29;20024;-84
2021/04/24 02:27:16;;;;;;;5.95;3.40;;;;;;;19.99;21.23;72826.66;4929077;29;20032;-82
2021/04/24 02:29:48;;;;;;;7.70;3.70;;;;;;;20.29;21.11;72861.44;4930192;29;20899;-84
2021/04/24 02:32:16;;;;;;;9.52;4.22;;;;;;;19.88;21.03;72810.66;4915889;29;20027;-82
2021/04/24 02:34:46;;;;;;;5.43;3.72;;;;;;;20.85;20.41;72923.47;4916778;29;20039;-83
2021/04/24 02:37:14;;;;;;;4.75;3.63;;;;;;;20.63;20.70;72897.66;4931565;29;20139;-83
2021/04/24 02:39:44;;;;;;;11.00;4.18;;;;;;;20.66;22.09;72898.44;4933154;29;20035;-83
2021/04/24 02:42:17;;;;;;;5.57;4.30;;;;;;;21.20;23.07;72963.66;4914557;29;20035;-82
2021/04/24 02:44:45;;;;;;;8.35;6.18;;;;;;;20.20;22.72;72848.47;4934192;29;20043;-84
2021/04/24 02:47:12;;;;;;;8.40;5.20;;;;;;;21.11;23.62;72956.28;4908205;29;20087;-84
2021/04/24 02:49:40;;;;;;;10.63;4.53;;;;;;;21.22;23.92;72965.47;4930454;29;20012;-84
2021/04/24 02:52:07;;;;;;;7.28;4.40;;;;;;;20.31;24.45;72863.22;4916323;29;20503;-86
2021/04/24 02:54:35;;;;;;;8.10;5.15;;;;;;;20.41;24.70;72874.63;4914151;29;20036;-85
2021/04/24 02:57:03;;;;;;;9.50;7.07;;;;;;;21.00;24.56;72943.66;4916924;29;20726;-85
2021/04/24 02:59:30;;;;;;;13.95;7.20;;;;;;;19.82;25.55;72804.66;4914159;29;20031;-85
2021/04/24 03:01:58;;;;;;;11.27;5.38;;;;;;;20.19;26.47;72849.44;4916234;29;20042;-82
2021/04/24 03:04:28;;;;;;;10.38;4.80;;;;;;;19.10;27.33;72724.13;4917002;29;20509;-85
2021/04/24 03:06:55;;;;;;;12.32;5.35;;;;;;;19.73;27.18;72793.84;4931461;29;20060;-83
2021/04/24 03:09:22;;;;;;;10.07;5.40;;;;;;;19.82;26.79;72807.47;4925179;29;20114;-87
2021/04/24 03:11:49;;;;;;;12.43;5.75;;;;;;;18.90;26.56;72700.72;4918189;29;20405;-88
2021/04/24 03:14:16;;;;;;;12.63;5.95;;;;;;;19.50;27.01;72770.25;4925204;29;20142;-88
2021/04/24 03:16:43;;;;;;;17.63;6.68;;;;;;;18.53;27.50;72657.59;4930983;29;20076;-92
2021/04/24 03:19:10;;;;;;;10.98;4.90;;;;;;;19.49;29.27;72768.47;4924782;29;20032;-88
2021/04/24 03:21:37;;;;;;;10.25;6.22;;;;;;;18.17;28.96;72616.84;4923102;29;20054;-83
2021/04/24 03:24:05;;;;;;;8.00;5.40;;;;;;;19.33;29.41;72749.88;4940959;29;20032;-90
2021/04/24 03:26:35;;;;;;;13.35;5.53;;;;;;;18.59;29.96;72665.38;4931900;29;20024;-91
2021/04/24 03:29:05;;;;;;;8.00;5.45;;;;;;;19.12;29.98;72725.91;4953421;28;20059;-92
2021/04/24 03:31:32;;;;;;;11.48;5.95;;;;;;;18.80;29.98;72689.34;4950882;29;20028;-91
2021/04/24 03:33:59;;;;;;;12.00;5.03;;;;;;;18.39;29.08;72642.00;4930503;29;20091;-92
2021/04/24 03:36:26;;;;;;;12.35;5.10;;;;;;;19.37;29.36;72754.69;4914005;29;20087;-92
2021/04/24 03:38:53;;;;;;;11.50;4.50;;;;;;;19.50;28.96;72764.69;4918609;29;20024;-89
2021/04/24 03:41:21;;;;;;;6.45;4.88;;;;;;;18.93;29.24;72703.72;4934646;29;20086;-85
2021/04/24 03:43:48;;;;;;;10.52;5.45;;;;;;;18.23;29.25;72622.84;4917948;29;20023;-88
2021/04/24 03:46:15;;;;;;;8.48;4.60;;;;;;;18.82;28.83;72691.13;4929890;29;20031;-87
2021/04/24 03:48:42;;;;;;;5.55;4.97;;;;;;;19.36;28.51;72753.47;4931437;29;20035;-88
2021/04/24 03:51:09;;;;;;;7.55;4.88;;;;;;;19.38;27.87;72755.91;4927777;29;20034;-84
2021/04/24 03:53:36;;;;;;;7.18;5.30;;;;;;;19.12;28.53;72723.72;4934445;29;20027;-86
2021/04/24 03:56:03;;;;;;;9.90;5.47;;;;;;;18.23;28.46;72617.88;4930278;29;20086;-86
2021/04/24 03:58:29;;;;;;;14.68;5.82;;;;;;;18.99;29.15;72710.91;4916269;29;20401;-86
2021/04/24 04:00:56;;;;;;;12.80;4.97;;;;;;;19.35;29.78;72752.28;4925281;29;20051;-82
2021/04/24 04:03:23;;;;;;;7.47;4.63;;;;;;;18.24;30.67;72621.84;4932799;29;20028;-84
2021/04/24 04:05:50;;;;;;;11.20;5.70;;;;;;;18.74;30.66;72682.75;4930181;29;20063;-84
2021/04/24 04:08:17;;;;;;;13.23;6.13;;;;;;;19.14;30.87;72728.91;4931598;29;20107;-85
2021/04/24 04:10:45;;;;;;;15.25;6.13;;;;;;;18.87;29.88;72697.13;4932284;29;20035;-83
2021/04/24 04:13:14;;;;;;;9.27;4.72;;;;;;;18.84;29.95;72690.75;4933814;29;20557;-83
2021/04/24 04:15:41;;;;;;;12.98;5.32;;;;;;;17.90;30.62;72582.88;4937986;29;20023;-86
2021/04/24 04:18:15;;;;;;;11.27;5.60;;;;;;;18.25;31.17;72625.22;4937496;29;20024;-81
2021/04/24 04:20:47;;;;;;;7.68;5.90;;;;;;;18.00;32.13;72596.47;4917629;29;20515;-83
2021/04/24 04:23:14;;;;;;;8.00;5.50;;;;;;;19.00;31.67;72709.94;4938981;29;20042;-89
2021/04/24 04:25:42;;;;;;;10.75;5.25;;;;;;;18.03;32.12;72600.06;4925530;29;20078;-87
2021/04/24 04:28:10;;;;;;;21.55;6.47;;;;;;;17.95;33.05;72590.47;4920508;29;20159;-86
2021/04/24 04:30:38;;;;;;;10.02;5.95;;;;;;;16.79;34.45;72457.56;4919979;29;20030;-86
2021/04/24 04:33:06;;;;;;;22.20;7.28;;;;;;;18.41;34.63;72641.63;4920539;29;20031;-85
2021/04/24 04:35:35;;;;;;;8.13;5.40;;;;;;;18.24;35.05;72624.03;4915044;29;20181;-84
2021/04/24 04:38:03;;;;;;;16.08;6.10;;;;;;;18.37;35.03;72639.59;4919496;29;20119;-85
2021/04/24 04:40:30;;;;;;;19.95;7.07;;;;;;;17.82;35.75;72576.09;4919642;29;20485;-85
2021/04/24 04:42:57;;;;;;;13.20;5.70;;;;;;;17.78;36.49;72568.53;4922164;29;20030;-87
2021/04/24 04:45:25;;;;;;;10.30;5.78;;;;;;;18.30;35.76;72631.81;4919316;29;20085;-87
2021/04/24 04:47:52;;;;;;;8.98;5.90;;;;;;;17.59;35.56;72549.75;4920261;29;20038;-85
2021/04/24 04:50:21;;;;;;;12.50;7.95;;;;;;;18.42;35.09;72645.00;4914053;29;20043;-82
2021/04/24 04:52:49;;;;;;;15.65;6.95;;;;;;;18.67;36.56;72674.34;4933847;29;20027;-84
2021/04/24 04:55:16;;;;;;;13.05;7.15;;;;;;;17.89;35.05;72581.69;4918622;29;20039;-83
2021/04/24 04:57:43;;;;;;;15.50;7.38;;;;;;;18.81;35.13;72692.72;4933643;29;20035;-85
2021/04/24 05:00:18;;;;;;;11.18;5.32;;;;;;;17.71;29.80;72557.97;4914775;29;20048;-84
2021/04/24 05:02:47;;;;;;;8.43;4.75;;;;;;;18.71;28.61;72678.53;4918083;29;20094;-85
2021/04/24 05:05:15;;;;;;;10.35;4.55;;;;;;;17.69;29.49;72560.53;4921475;29;20027;-86
2021/04/24 05:07:44;;;;;;;6.70;4.97;;;;;;;18.46;28.80;72647.63;4923663;29;20095;-87
2021/04/24 05:10:16;;;;;;;11.70;4.72;;;;;;;18.80;28.05;72688.75;4939355;29;20027;-86
2021/04/24 05:12:43;;;;;;;8.40;3.70;;;;;;;18.54;28.77;72656.59;4936046;29;20031;-85
2021/04/24 05:15:11;;;;;;;11.18;4.20;;;;;;;18.90;29.02;72700.72;4926607;29;20036;-83
2021/04/24 05:17:38;;;;;;;9.93;4.25;;;;;;;18.71;29.39;72678.53;4934430;29;20036;-85
2021/04/24 05:20:06;;;;;;;8.38;3.63;;;;;;;18.14;29.69;72613.25;4935578;29;20075;-84
2021/04/24 05:22:33;;;;;;;8.02;4.18;;;;;;;19.67;30.29;72789.47;4935985;29;20036;-84
2021/04/24 05:25:00;;;;;;;7.20;4.00;;;;;;;19.04;30.83;72716.94;4916669;29;20047;-84
2021/04/24 05:27:27;;;;;;;11.95;4.03;;;;;;;19.96;30.49;72823.06;4916117;29;20032;-84
2021/04/24 05:29:54;;;;;;;6.25;3.65;;;;;;;18.44;30.95;72642.41;4934781;29;20084;-83
2021/04/24 05:32:21;;;;;;;9.82;4.43;;;;;;;19.03;31.46;72715.13;4932927;29;20110;-85
2021/04/24 05:34:49;;;;;;;8.52;4.35;;;;;;;19.81;31.76;72800.66;4934907;29;20095;-85
2021/04/24 05:37:16;;;;;;;8.80;5.82;;;;;;;19.17;31.27;72726.34;4918073;29;20047;-84
2021/04/24 05:39:44;;;;;;;13.40;4.97;;;;;;;19.27;31.49;72740.50;4923014;29;20111;-84
2021/04/24 05:42:12;;;;;;;6.40;4.55;;;;;;;19.36;31.20;72753.47;4934922;29;20122;-85
2021/04/24 05:44:40;;;;;;;9.50;4.50;;;;;;;20.17;31.09;72847.66;4911868;29;20024;-84
2021/04/24 05:47:08;;;;;;;10.25;5.00;;;;;;;20.29;31.30;72860.84;4912410;29;20028;-85
2021/04/24 05:49:35;;;;;;;11.77;5.57;;;;;;;20.67;30.99;72905.22;4916300;29;20046;-85
2021/04/24 05:52:05;;;;;;;17.15;5.97;;;;;;;20.92;31.02;72931.88;4928687;29;20205;-85
2021/04/24 05:54:32;;;;;;;8.05;5.07;;;;;;;20.66;31.62;72904.03;4931776;29;20158;-84
2021/04/24 05:56:58;;;;;;;9.73;5.15;;;;;;;21.23;30.71;72963.88;4928742;29;20050;-83
2021/04/24 05:59:25;;;;;;;12.65;4.63;;;;;;;21.26;31.51;72970.28;4942017;29;20028;-84
2021/04/24 06:01:52;;;;;;;11.00;4.40;;;;;;;20.47;31.18;72876.25;4932886;29;20038;-84
2021/04/24 06:04:19;;;;;;;10.75;5.35;;;;;;;21.08;32.12;72952.66;4921202;29;20063;-84
2021/04/24 06:06:46;;;;;;;11.70;4.72;;;;;;;21.06;32.11;72948.06;4917233;29;20032;-84
2021/04/24 06:09:13;;;;;;;6.95;5.35;;;;;;;20.86;33.04;72924.66;4915530;29;20096;-85
2021/04/24 06:11:40;;;;;;;10.68;5.57;;;;;;;20.24;33.63;72856.06;4928718;29;20032;-82
2021/04/24 06:14:07;;;;;;;6.80;5.05;;;;;;;20.35;34.07;72868.66;4934214;29;20091;-84
2021/04/24 06:16:34;;;;;;;13.13;5.13;;;;;;;19.58;33.93;72779.28;4915373;29;20485;-85
2021/04/24 06:19:01;;;;;;;8.75;4.85;;;;;;;19.75;34.65;72795.66;4933330;29;20548;-84
2021/04/24 06:21:27;;;;;;;14.45;5.38;;;;;;;20.37;34.01;72871.06;4919873;29;20031;-84
2021/04/24 06:23:57;;;;;;;10.88;6.20;;;;;;;21.30;33.96;72977.88;4931506;29;20456;-85
2021/04/24 06:26:24;;;;;;;;;;;;;;;21.34;39.75;72982.69;4914053;29;20042;-85
2021/04/24 06:28:51;;;;;;;20.90;7.25;;;;;;;19.97;42.81;72824.28;4933121;29;20017;-85
2021/04/24 06:31:18;;;;;;;13.40;7.32;;;;;;;20.50;43.07;72886.03;4914075;29;20445;-84
2021/04/24 06:33:44;;;;;;;16.02;7.65;;;;;;;20.27;43.42;72859.06;4900039;29;20486;-83
2021/04/24 06:36:11;;;;;;;14.55;8.70;;;;;;;19.01;44.46;72713.31;4930558;29;20047;-83
2021/04/24 06:38:42;;;;;;;21.70;7.35;;;;;;;20.29;44.80;72858.66;4917412;29;20028;-85
2021/04/24 06:41:08;;;;;;;;;;;;;;;19.92;45.69;72818.25;4938159;29;20034;-84
2021/04/24 06:43:35;;;;;;;14.98;7.63;;;;;;;19.17;46.66;72731.31;4916411;29;20303;-84
2021/04/24 06:46:01;;;;;;;13.52;7.07;;;;;;;18.57;46.47;72662.38;4924576;29;20474;-86
2021/04/24 06:48:28;;;;;;;12.57;8.40;;;;;;;19.28;45.94;72745.09;4919655;29;20039;-87
2021/04/24 06:50:58;;;;;;;16.88;7.32;;;;;;;19.66;46.01;72785.47;4944117;29;20016;-93
2021/04/24 06:54:01;;;;;;;10.45;6.25;;;;;;;18.59;43.21;72661.97;4937689;28;20087;-94
2021/04/24 06:56:50;;;;;;;14.88;6.57;;;;;;;19.54;44.11;72774.47;4996065;23;20052;-92
2021/04/24 06:59:17;;;;;;;17.48;7.38;;;;;;;19.74;43.69;72795.06;4932799;29;20048;-91
2021/04/24 07:01:44;;;;;;;14.55;6.70;;;;;;;20.47;44.08;72882.44;4906938;29;20080;-91
2021/04/24 07:04:11;;;;;;;16.52;6.35;;;;;;;20.34;40.95;72867.44;4915402;29;20035;-90
2021/04/24 07:06:38;;;;;;;12.65;6.78;;;;;;;20.16;39.23;72843.06;4924163;29;20045;-90
2021/04/24 07:09:05;;;;;;;14.63;5.07;;;;;;;19.14;36.89;72725.53;4923906;29;20044;-90
2021/04/24 07:11:33;;;;;;;12.02;5.10;;;;;;;20.38;36.80;72866.66;4908603;29;20044;-91
2021/04/24 07:14:00;;;;;;;8.20;4.88;;;;;;;20.07;36.70;72830.06;4903328;29;20366;-90
2021/04/24 07:16:27;;;;;;;12.88;5.20;;;;;;;18.96;36.41;72704.53;4903968;29;20516;-90
2021/04/24 07:18:53;;;;;;;12.30;5.07;;;;;;;19.67;35.48;72784.47;4917816;29;20032;-89
2021/04/24 07:21:23;;;;;;;13.85;4.50;;;;;;;21.06;35.85;72947.47;4924415;29;20051;-89
2021/04/24 07:23:51;;;;;;;12.15;4.03;;;;;;;19.34;35.15;72748.31;4907068;29;20099;-89
2021/04/24 07:26:20;;;;;;;7.90;4.55;;;;;;;20.87;35.69;72928.66;4904069;29;20087;-89
2021/04/24 07:28:47;;;;;;;6.40;4.97;;;;;;;20.65;36.08;72903.44;4919641;29;20052;-90
2021/04/24 07:31:15;;;;;;;9.75;5.30;;;;;;;19.37;36.68;72754.69;4919641;29;20068;-90
2021/04/24 07:33:42;;;;;;;8.60;4.82;;;;;;;19.26;36.92;72742.69;4922139;29;20027;-90
2021/04/24 07:36:10;;;;;;;10.57;4.72;;;;;;;20.41;36.75;72871.84;4915032;29;20025;-90
2021/04/24 07:38:37;;;;;;;8.75;4.75;;;;;;;20.10;36.48;72837.06;4915602;29;20036;-89
2021/04/24 07:41:04;;;;;;;9.32;4.80;;;;;;;20.16;36.84;72843.06;4910930;29;20036;-86
2021/04/24 07:43:31;;;;;;;17.35;6.18;;;;;;;20.51;37.11;72881.06;4910334;29;20025;-89
2021/04/24 07:45:58;;;;;;;11.38;4.97;;;;;;;20.98;36.79;72937.88;4912650;29;20032;-90
2021/04/24 07:48:25;;;;;;;14.88;4.95;;;;;;;19.42;37.19;72761.28;4909574;29;20099;-90
2021/04/24 07:50:52;;;;;;;14.68;6.25;;;;;;;20.87;37.96;72928.66;4922257;29;20024;-91
2021/04/24 07:53:20;;;;;;;13.48;6.50;;;;;;;20.42;38.01;72870.84;4916815;29;20028;-90
2021/04/24 07:55:48;;;;;;;12.55;6.68;;;;;;;20.99;37.69;72939.06;4926333;29;20126;-89
2021/04/24 07:58:15;;;;;;;8.10;5.80;;;;;;;20.90;38.86;72931.66;4901693;29;20049;-90
2021/04/24 08:00:43;;;;;;;16.77;6.78;;;;;;;20.24;40.73;72849.88;4899391;29;20060;-88
2021/04/24 08:03:10;;;;;;;11.43;6.03;;;;;;;20.48;42.12;72880.84;4912321;29;20014;-89
2021/04/24 08:05:37;;;;;;;11.85;6.38;;;;;;;20.01;42.91;72829.06;4913894;29;20044;-90
2021/04/24 08:08:04;;;;;;;13.77;6.45;;;;;;;19.78;45.06;72802.66;4923517;29;20028;-94
2021/04/24 08:10:31;;;;;;;13.00;6.53;;;;;;;19.82;45.63;72806.84;4910743;29;20096;-91
2021/04/24 08:13:05;;;;;;;11.00;6.80;;;;;;;19.71;46.92;72794.25;4913584;29;20056;-92
2021/04/24 08:15:32;;;;;;;12.60;6.88;;;;;;;18.43;49.38;72643.41;4927006;29;20050;-93
2021/04/24 08:18:00;;;;;;;19.48;7.55;;;;;;;17.02;53.20;72483.91;4917498;29;20075;-92
2021/04/24 08:20:27;;;;;;;14.98;7.00;;;;;;;17.63;54.03;72551.16;4923577;29;20083;-92
2021/04/24 08:22:56;;;;;;;17.20;7.25;;;;;;;17.92;54.62;72587.47;4916285;29;20176;-92
2021/04/24 08:25:23;;;;;;;12.82;7.93;;;;;;;17.71;55.10;72562.94;4890050;29;20036;-91
2021/04/24 08:27:51;;;;;;;13.20;7.95;;;;;;;17.55;56.08;72544.97;4888142;29;20948;-92
2021/04/24 08:30:19;;;;;;;14.98;9.13;;;;;;;17.00;56.29;72478.69;4893109;29;20025;-93
2021/04/24 08:32:47;;;;;;;14.15;8.35;;;;;;;16.91;57.13;72470.72;4918286;29;20051;-92
2021/04/24 08:35:15;;;;;;;13.90;7.53;;;;;;;16.90;58.43;72470.13;4924849;28;20044;-93
2021/04/24 08:37:44;;;;;;;11.80;7.65;;;;;;;17.01;59.70;72482.09;4927664;29;20047;-90
2021/04/24 08:40:13;;;;;;;17.07;8.13;;;;;;;16.36;60.31;72407.28;4906123;29;20130;-93
2021/04/24 08:42:41;;;;;;;15.50;9.43;;;;;;;16.69;60.63;72445.56;4934207;29;20626;-92
2021/04/24 08:45:14;;;;;;;19.33;8.43;;;;;;;16.40;61.78;72412.09;4918365;29;20281;-92
2021/04/24 08:47:53;;;;;;;12.68;8.27;;;;;;;14.89;62.83;72238.06;4898469;29;20036;-92
2021/04/24 08:50:24;;;;;;;15.85;8.07;;;;;;;15.92;63.42;72357.03;4913818;29;20036;-92
2021/04/24 08:52:53;;;;;;;12.88;9.25;;;;;;;15.15;63.88;72268.53;4917025;29;20055;-93
2021/04/24 08:55:23;;;;;;;12.55;8.43;;;;;;;16.61;62.20;72436.00;4909144;29;20035;-93
2021/04/24 08:57:54;;;;;;;15.70;8.98;;;;;;;16.38;62.94;72415.22;4905185;29;20060;-92
2021/04/24 09:00:33;;;;;;;17.77;8.43;;;;;;;16.48;62.86;72415.50;4898001;29;20033;-91
2021/04/24 09:03:00;;;;;;;20.57;9.50;;;;;;;16.81;62.12;72459.34;4926720;29;20016;-93
2021/04/24 09:05:32;;;;;;;14.35;8.48;;;;;;;15.82;63.20;72342.31;4909179;29;20037;-91
2021/04/24 09:08:10;;;;;;;17.50;9.07;;;;;;;16.44;63.71;72416.88;4909992;29;20120;-92
2021/04/24 09:10:46;;;;;;;13.25;8.38;;;;;;;15.35;64.62;72291.28;4913973;29;20104;-91
2021/04/24 09:13:19;;;;;;;15.60;8.90;;;;;;;15.08;64.61;72260.19;4934823;29;20027;-91
2021/04/24 09:15:47;;;;;;;18.95;8.93;;;;;;;15.51;64.97;72309.19;4929747;29;20036;-94
2021/04/24 09:18:18;;;;;;;17.98;8.02;;;;;;;15.60;64.75;72317.78;4918077;29;20028;-92
2021/04/24 09:20:52;;;;;;;15.20;7.78;;;;;;;16.29;64.04;72399.53;4916073;29;20114;-91
2021/04/24 09:23:31;;;;;;;19.17;8.63;;;;;;;16.21;64.19;72389.94;4913807;29;20083;-91
2021/04/24 09:26:04;;;;;;;15.93;8.75;;;;;;;16.32;64.18;72402.50;4906964;29;20036;-88
2021/04/24 09:28:41;;;;;;;21.05;9.48;;;;;;;15.16;63.85;72269.75;4903337;29;20025;-88
2021/04/24 09:31:28;;;;;;;12.50;8.75;;;;;;;16.45;63.64;72417.47;4902538;29;20066;-88
2021/04/24 09:33:57;;;;;;;11.80;8.07;;;;;;;15.74;64.26;72333.94;4888406;29;20088;-90
2021/04/24 09:36:33;;;;;;;11.88;7.78;;;;;;;15.18;64.76;72266.59;4903129;29;20028;-92
2021/04/24 09:39:08;;;;;;;15.88;9.43;;;;;;;14.77;64.86;72224.31;4910726;29;20119;-88
2021/04/24 09:41:43;;;;;;;20.43;9.13;;;;;;;16.00;65.78;72366.03;4901913;29;20048;-83
2021/04/24 09:44:13;;;;;;;17.88;9.70;;;;;;;15.59;65.83;72318.75;4918870;29;20108;-88
2021/04/24 09:46:53;;;;;;;16.30;9.55;;;;;;;15.80;65.30;72342.69;4917629;29;20028;-89
2021/04/24 09:49:29;;;;;;;11.10;8.02;;;;;;;15.67;64.90;72328.34;4920841;29;20124;-90
2021/04/24 09:52:04;;;;;;;13.02;8.13;;;;;;;15.45;65.16;72303.22;4898375;29;20087;-89
2021/04/24 09:54:43;;;;;;;11.90;7.90;;;;;;;15.39;64.21;72296.03;4916696;29;20043;-90
2021/04/24 09:57:20;;;;;;;7.25;5.85;;;;;;;15.56;64.30;72312.41;4908484;29;20102;-90
2021/04/24 10:00:07;;;;;;;18.38;7.68;;;;;;;15.67;63.69;72327.72;4920121;29;20036;-91
2021/04/24 10:02:39;;;;;;;14.05;7.60;;;;;;;15.32;63.77;72285.50;4905243;29;20055;-89
2021/04/24 10:05:12;;;;;;;13.75;7.53;;;;;;;15.56;63.96;72315.78;4904556;29;20024;-89
2021/04/24 10:07:41;;;;;;;12.68;7.28;;;;;;;15.88;63.20;72352.84;4921147;29;20033;-90
2021/04/24 10:10:11;;;;;;;8.73;7.15;;;;;;;14.58;62.85;72202.81;4901004;29;20028;-90
2021/04/24 10:12:38;;;;;;;12.95;8.40;;;;;;;16.12;63.07;72388.09;4903320;29;20451;-90
2021/04/24 10:15:08;;;;;;;12.77;8.20;;;;;;;14.51;63.46;72189.50;4904302;29;20036;-90
2021/04/24 10:17:35;;;;;;;10.80;7.78;;;;;;;16.04;63.16;72370.22;4903470;29;20028;-89
2021/04/24 10:20:05;;;;;;;16.80;8.02;;;;;;;15.50;63.71;72308.00;4922201;29;20064;-88
2021/04/24 10:22:32;;;;;;;12.68;7.32;;;;;;;15.77;62.67;72336.94;4907664;29;20032;-88
2021/04/24 10:25:01;;;;;;;30.65;9.57;;;;;;;15.93;63.72;72358.25;4910830;29;20060;-89
2021/04/24 10:27:28;;;;;;;18.10;8.63;;;;;;;15.57;65.38;72316.97;4905604;29;20118;-90
2021/04/24 10:29:55;;;;;;;14.10;8.00;;;;;;;14.73;65.20;72219.53;4910330;29;20028;-88
2021/04/24 10:32:23;;;;;;;19.52;9.85;;;;;;;14.11;65.64;72148.44;4917983;29;20121;-87
2021/04/24 10:34:50;;;;;;;11.63;8.95;;;;;;;13.90;66.30;72124.53;4921588;29;20039;-89
2021/04/24 10:37:17;;;;;;;16.55;9.05;;;;;;;14.45;65.76;72187.25;4911539;29;20032;-90
2021/04/24 10:39:44;;;;;;;18.00;8.32;;;;;;;15.02;65.58;72253.00;4906489;29;20021;-90
2021/04/24 10:42:21;;;;;;;14.07;9.07;;;;;;;15.01;65.75;72249.03;4919211;29;20060;-91
2021/04/24 10:44:52;;;;;;;14.65;8.20;;;;;;;15.11;65.40;72261.00;4923832;29;20029;-87
2021/04/24 10:47:54;;;;;;;15.35;8.23;;;;;;;15.12;65.73;72264.97;4917397;29;20027;-87
2021/04/24 10:50:45;;;;;;;13.10;8.60;;;;;;;12.85;66.02;72003.34;4936020;29;20035;-89
2021/04/24 10:53:25;;;;;;;15.90;9.15;;;;;;;15.01;67.40;72252.41;4913683;29;20040;-88
2021/04/24 10:55:54;;;;;;;11.98;9.23;;;;;;;14.04;68.79;72140.06;4912214;29;20067;-88
2021/04/24 10:58:23;;;;;;;17.30;10.95;;;;;;;13.31;70.11;72056.47;4926936;29;20123;-89
2021/04/24 11:01:00;;;;;;;17.75;10.15;;;;;;;14.49;71.30;72192.03;4929434;29;20035;-90
2021/04/24 11:03:36;;;;;;;22.75;12.02;;;;;;;14.47;71.59;72189.66;4926803;29;20075;-89
2021/04/24 11:06:23;;;;;;;16.20;10.43;;;;;;;13.80;72.13;72113.19;4922966;29;20223;-90
2021/04/24 11:09:11;;;;;;;13.93;8.65;;;;;;;14.09;71.76;72146.63;4925007;29;20135;-90
2021/04/24 11:11:38;;;;;;;17.58;10.07;;;;;;;13.81;71.37;72113.81;4921815;29;20035;-89
2021/04/24 11:14:05;;;;;;;11.20;8.45;;;;;;;14.36;70.78;72177.09;4923570;29;20032;-90
2021/04/24 11:16:32;;;;;;;18.50;9.55;;;;;;;13.10;71.18;72029.22;4933136;29;20034;-90
2021/04/24 11:19:00;;;;;;;13.43;9.82;;;;;;;12.43;71.83;71955.63;4923062;29;20175;-90
2021/04/24 11:21:29;;;;;;;22.35;11.07;;;;;;;12.67;71.10;71982.47;4923326;29;20044;-91
2021/04/24 11:23:58;;;;;;;18.25;8.50;;;;;;;12.73;69.79;71990.22;4922398;29;20157;-91
2021/04/24 11:26:33;;;;;;;15.90;10.40;;;;;;;14.26;69.97;72162.41;4938393;29;20035;-90
2021/04/24 11:29:08;;;;;;;15.98;9.27;;;;;;;14.17;70.83;72152.22;4928105;29;20046;-90
2021/04/24 11:31:55;;;;;;;18.73;8.90;;;;;;;14.13;70.45;72150.22;4937639;29;20119;-90
2021/04/24 11:34:37;;;;;;;16.83;10.38;;;;;;;14.08;70.46;72144.84;4937603;29;20028;-91
2021/04/24 11:37:23;;;;;;;15.30;9.40;;;;;;;14.46;69.03;72189.06;4924337;29;20035;-90
2021/04/24 11:40:11;;;;;;;13.07;8.95;;;;;;;14.60;67.98;72202.41;4942229;29;20036;-90